Time;durP1;ratioP1;P1;durP2;ratioP2;P2;SDS_P1;SDS_P2;PMS_P1;PMS_P2;Temp;Humidity;BMP_temperature;BMP_pressure;BME280_temperature;BME280_humidity;BME280_pressure;Samples;Min_cycle;Max_cycle;Signal;HPM_P1;HPM_P2
2021/07/18 04:10:42;;;;;;;5.70;3.20;;;20.90;82.80;;;;;;5150878;27;20293;-65
2021/07/18 04:13:07;;;;;;;6.90;3.13;;;20.00;89.40;;;;;;5141166;27;20103;-64
2021/07/18 04:15:33;;;;;;;7.63;3.15;;;19.50;90.30;;;;;;5141774;27;20646;-65
2021/07/18 04:18:06;;;;;;;7.93;3.72;;;19.80;90.70;;;;;;5149419;27;20030;-65
2021/07/18 04:20:32;;;;;;;11.32;5.20;;;19.50;89.20;;;;;;5141081;27;20027;-65
2021/07/18 04:22:58;;;;;;;6.65;3.13;;;19.20;90.20;;;;;;5147234;27;20391;-66
2021/07/18 04:25:23;;;;;;;10.63;4.75;;;19.20;92.60;;;;;;5153721;27;20094;-64
2021/07/18 04:27:49;;;;;;;9.80;4.10;;;19.00;91.10;;;;;;5149338;27;20068;-64
2021/07/18 04:30:14;;;;;;;9.32;4.80;;;18.80;92.60;;;;;;5148309;27;20078;-64
2021/07/18 04:32:40;;;;;;;7.90;3.38;;;18.80;91.90;;;;;;5158060;27;20476;-64
2021/07/18 04:35:06;;;;;;;7.40;3.83;;;18.90;93.30;;;;;;5147773;27;20027;-64
2021/07/18 04:37:31;;;;;;;6.55;3.20;;;19.50;91.40;;;;;;5146354;27;20106;-64
2021/07/18 04:39:57;;;;;;;10.55;5.38;;;19.90;90.70;;;;;;5138550;27;20132;-64
2021/07/18 04:42:22;;;;;;;11.20;5.65;;;19.60;89.60;;;;;;5148815;27;20097;-66
2021/07/18 04:44:48;;;;;;;6.80;3.00;;;19.40;90.60;;;;;;5143045;27;20132;-64
2021/07/18 04:47:13;;;;;;;9.25;4.40;;;19.40;92.10;;;;;;5149867;27;20503;-65
2021/07/18 04:49:39;;;;;;;7.68;3.80;;;19.20;91.20;;;;;;5138438;27;20038;-65
2021/07/18 04:52:05;;;;;;;10.95;4.72;;;19.10;92.70;;;;;;5138801;27;20034;-65
2021/07/18 04:54:30;;;;;;;8.57;3.80;;;19.00;91.60;;;;;;5137768;27;20027;-64
2021/07/18 04:56:56;;;;;;;9.48;5.05;;;18.90;92.90;;;;;;5147561;27;20064;-64
2021/07/18 04:59:21;;;;;;;8.23;3.50;;;19.10;92.00;;;;;;5128858;27;20377;-65
2021/07/18 05:01:47;;;;;;;9.35;4.28;;;19.50;92.10;;;;;;5130339;27;20026;-66
2021/07/18 05:04:12;;;;;;;10.55;3.60;;;19.80;90.80;;;;;;5138795;27;20037;-64
2021/07/18 05:06:38;;;;;;;9.32;4.82;;;20.10;90.00;;;;;;5148167;27;20027;-64
2021/07/18 05:09:03;;;;;;;9.40;3.83;;;19.90;90.00;;;;;;5143686;27;20027;-64
2021/07/18 05:11:29;;;;;;;8.02;3.90;;;20.30;89.40;;;;;;5135919;27;20027;-63
2021/07/18 05:13:55;;;;;;;11.93;3.95;;;20.30;89.20;;;;;;5128503;27;20023;-65
2021/07/18 05:16:20;;;;;;;8.38;3.55;;;20.50;87.50;;;;;;5131174;27;20475;-65
2021/07/18 05:18:46;;;;;;;8.27;3.70;;;20.70;86.70;;;;;;5147348;27;20019;-65
2021/07/18 05:21:12;;;;;;;7.95;4.45;;;20.90;84.70;;;;;;5138755;27;20535;-65
2021/07/18 05:23:37;;;;;;;7.47;4.10;;;21.10;83.60;;;;;;5121074;27;20046;-64
2021/07/18 05:26:03;;;;;;;7.22;4.03;;;20.90;84.60;;;;;;5135310;27;20031;-65
2021/07/18 05:28:29;;;;;;;9.20;3.67;;;21.00;84.50;;;;;;5127997;27;20521;-64
2021/07/18 05:30:54;;;;;;;9.50;4.93;;;21.10;83.40;;;;;;5116051;27;20494;-64
2021/07/18 05:33:20;;;;;;;10.07;4.47;;;21.10;83.00;;;;;;5134323;27;20071;-64
2021/07/18 05:35:45;;;;;;;8.05;3.70;;;20.90;84.90;;;;;;5135029;27;20098;-65
2021/07/18 05:38:11;;;;;;;8.45;3.45;;;21.20;83.40;;;;;;5135256;27;20027;-64
2021/07/18 05:40:37;;;;;;;8.25;3.80;;;21.30;82.90;;;;;;5129496;27;20059;-66
2021/07/18 05:43:02;;;;;;;9.32;4.72;;;21.40;82.40;;;;;;5114758;28;20551;-65
2021/07/18 05:45:28;;;;;;;6.80;3.40;;;21.30;82.40;;;;;;5114398;28;20427;-65
2021/07/18 05:47:54;;;;;;;9.38;4.30;;;21.40;82.60;;;;;;5114584;28;20043;-65
2021/07/18 05:50:19;;;;;;;7.00;3.95;;;21.40;82.70;;;;;;5125863;27;20499;-66
2021/07/18 05:52:45;;;;;;;6.75;3.38;;;21.50;81.90;;;;;;5122906;27;20028;-66
2021/07/18 05:55:12;;;;;;;8.35;3.72;;;21.50;81.70;;;;;;5125527;27;20027;-65
2021/07/18 05:57:38;;;;;;;8.45;3.28;;;21.60;81.00;;;;;;5114375;28;20016;-65
2021/07/18 06:00:06;;;;;;;9.00;4.25;;;21.60;80.30;;;;;;5114325;28;20050;-66
2021/07/18 06:02:31;;;;;;;6.93;3.67;;;21.60;81.30;;;;;;5114300;28;20031;-66
2021/07/18 06:04:57;;;;;;;7.88;3.80;;;21.50;80.70;;;;;;5113973;28;20043;-66
2021/07/18 06:07:22;;;;;;;7.80;3.42;;;21.50;81.20;;;;;;5121239;27;20088;-66
2021/07/18 06:09:48;;;;;;;6.25;3.30;;;21.70;80.40;;;;;;5132004;27;20415;-66
2021/07/18 06:12:14;;;;;;;6.80;3.40;;;21.70;80.80;;;;;;5121332;27;20366;-64
2021/07/18 06:14:39;;;;;;;7.55;3.50;;;21.60;81.10;;;;;;5121870;27;20034;-66
2021/07/18 06:17:06;;;;;;;9.20;3.70;;;21.60;79.90;;;;;;5129270;27;20028;-65
2021/07/18 06:19:31;;;;;;;8.50;3.47;;;21.60;80.00;;;;;;5114814;27;20032;-66
2021/07/18 06:21:57;;;;;;;7.03;3.30;;;21.60;80.70;;;;;;5128366;27;20054;-65
2021/07/18 06:24:23;;;;;;;7.85;3.03;;;21.60;79.90;;;;;;5124470;27;20384;-64
2021/07/18 06:26:48;;;;;;;5.68;3.10;;;21.70;79.90;;;;;;5115038;27;20499;-64
2021/07/18 06:29:14;;;;;;;8.30;3.05;;;21.60;80.40;;;;;;5113695;28;20034;-65
2021/07/18 06:31:40;;;;;;;8.75;3.42;;;21.80;79.70;;;;;;5120436;27;20030;-66
2021/07/18 06:34:06;;;;;;;6.88;3.10;;;21.80;79.60;;;;;;5112257;28;20709;-66
2021/07/18 06:36:31;;;;;;;8.60;3.47;;;21.80;80.40;;;;;;5113337;27;20015;-65
2021/07/18 06:38:57;;;;;;;7.43;3.00;;;21.90;79.40;;;;;;5115789;27;20032;-65
2021/07/18 06:41:24;;;;;;;10.85;3.50;;;21.80;80.00;;;;;;5115809;27;20057;-65
2021/07/18 06:43:49;;;;;;;8.52;2.90;;;21.90;79.30;;;;;;5132187;27;20123;-62
2021/07/18 06:46:15;;;;;;;7.30;2.80;;;21.90;79.50;;;;;;5133609;27;20500;-65
2021/07/18 06:48:40;;;;;;;7.07;2.70;;;21.80;79.30;;;;;;5132020;27;20034;-65
2021/07/18 06:51:06;;;;;;;6.43;2.78;;;22.00;78.90;;;;;;5117695;27;20492;-66
2021/07/18 06:53:31;;;;;;;7.90;3.05;;;22.20;77.60;;;;;;5119219;27;20492;-65
2021/07/18 06:55:57;;;;;;;7.57;3.28;;;22.30;79.70;;;;;;5114463;27;20489;-65
2021/07/18 06:58:22;;;;;;;5.63;2.10;;;22.70;77.90;;;;;;5119897;27;20629;-66
2021/07/18 07:00:48;;;;;;;7.32;2.78;;;22.40;76.40;;;;;;5131632;27;20024;-64
2021/07/18 07:03:13;;;;;;;6.05;2.80;;;22.20;77.40;;;;;;5123382;27;20072;-66
2021/07/18 07:05:39;;;;;;;6.00;2.40;;;22.10;78.50;;;;;;5110663;28;20019;-64
2021/07/18 07:08:06;;;;;;;8.13;2.60;;;22.20;77.90;;;;;;5121401;27;20089;-65
2021/07/18 07:10:32;;;;;;;9.25;3.00;;;22.30;77.90;;;;;;5120620;27;20027;-65
2021/07/18 07:12:57;;;;;;;9.88;2.60;;;22.40;76.90;;;;;;5111774;28;20024;-65
2021/07/18 07:15:23;;;;;;;6.88;2.50;;;22.50;76.80;;;;;;5131955;27;20426;-65
2021/07/18 07:17:48;;;;;;;6.57;2.30;;;22.50;76.30;;;;;;5132240;27;20044;-65
2021/07/18 07:20:14;;;;;;;6.05;2.30;;;22.40;76.70;;;;;;5130764;27;20011;-65
2021/07/18 07:22:40;;;;;;;6.40;2.35;;;23.00;77.50;;;;;;5114611;27;20016;-66
2021/07/18 07:25:12;;;;;;;10.60;2.58;;;22.90;76.70;;;;;;5112648;27;20020;-64
2021/07/18 07:27:38;;;;;;;13.60;2.53;;;22.70;75.10;;;;;;5111482;27;20492;-65
2021/07/18 07:30:06;;;;;;;15.32;2.75;;;23.00;74.60;;;;;;5111316;27;20027;-65
2021/07/18 07:32:32;;;;;;;10.25;3.05;;;22.70;75.80;;;;;;5111277;27;20026;-66
2021/07/18 07:34:57;;;;;;;7.78;2.50;;;22.80;75.50;;;;;;5109311;27;20012;-67
2021/07/18 07:37:24;;;;;;;8.50;2.35;;;22.50;76.00;;;;;;5110746;27;20020;-64
2021/07/18 07:39:52;;;;;;;6.75;2.40;;;22.50;76.10;;;;;;5109386;28;20099;-65
2021/07/18 07:42:19;;;;;;;7.70;2.25;;;22.30;77.10;;;;;;5120411;27;20393;-66
2021/07/18 07:44:45;;;;;;;6.18;2.15;;;22.50;76.40;;;;;;5109936;27;20027;-65
2021/07/18 07:47:10;;;;;;;6.68;2.30;;;22.40;76.40;;;;;;5111287;28;20029;-66
2021/07/18 07:49:36;;;;;;;7.85;2.28;;;22.80;75.00;;;;;;5112103;28;20066;-67
2021/07/18 07:52:02;;;;;;;7.22;2.60;;;22.60;76.00;;;;;;5112376;28;20489;-67
2021/07/18 07:54:27;;;;;;;5.30;2.10;;;22.40;76.70;;;;;;5112060;28;20035;-64
2021/07/18 07:56:53;;;;;;;4.72;2.00;;;22.40;76.90;;;;;;5110868;28;20020;-66
2021/07/18 07:59:18;;;;;;;6.90;2.10;;;22.10;78.00;;;;;;5112219;28;20055;-65
2021/07/18 08:01:44;;;;;;;3.78;1.92;;;22.40;77.00;;;;;;5119852;27;20046;-65
2021/07/18 08:04:09;;;;;;;5.75;2.35;;;22.50;76.20;;;;;;5132084;27;20054;-65
2021/07/18 08:06:34;;;;;;;9.50;2.42;;;22.60;76.00;;;;;;5129486;27;20079;-64
2021/07/18 08:09:00;;;;;;;5.80;2.38;;;22.90;75.40;;;;;;5130786;28;20065;-65
2021/07/18 08:11:25;;;;;;;4.28;2.10;;;23.60;73.30;;;;;;5132019;28;20020;-63
2021/07/18 08:13:51;;;;;;;4.15;2.00;;;23.20;73.60;;;;;;5132580;27;20015;-66
2021/07/18 08:16:17;;;;;;;6.00;2.00;;;22.70;75.60;;;;;;5153204;27;20033;-69
2021/07/18 08:18:42;;;;;;;5.22;1.98;;;22.50;76.30;;;;;;5152719;27;20026;-64
2021/07/18 08:21:08;;;;;;;6.20;2.05;;;22.80;75.60;;;;;;5152042;27;20110;-64
2021/07/18 08:23:34;;;;;;;5.00;1.92;;;22.80;75.80;;;;;;5144452;27;20034;-64
2021/07/18 08:25:59;;;;;;;7.35;2.10;;;22.90;75.50;;;;;;5109590;28;20020;-65
2021/07/18 08:28:25;;;;;;;6.28;1.80;;;22.60;77.00;;;;;;5111144;28;20039;-65
2021/07/18 08:30:51;;;;;;;6.32;2.05;;;22.30;77.10;;;;;;5111234;28;20024;-64
2021/07/18 08:33:17;;;;;;;7.68;2.08;;;22.10;77.60;;;;;;5111323;28;20099;-64
2021/07/18 08:35:43;;;;;;;5.00;2.00;;;22.20;77.10;;;;;;5111033;28;20103;-64
2021/07/18 08:38:08;;;;;;;5.85;1.98;;;22.70;75.40;;;;;;5111433;28;20535;-64
2021/07/18 08:40:36;;;;;;;5.97;1.90;;;22.60;75.50;;;;;;5111754;28;20031;-65
2021/07/18 08:43:03;;;;;;;3.42;1.60;;;22.70;76.50;;;;;;5111860;28;20097;-66
2021/07/18 08:45:28;;;;;;;4.20;1.88;;;22.70;75.20;;;;;;5111495;28;20039;-65
2021/07/18 08:47:54;;;;;;;5.03;1.80;;;23.30;73.70;;;;;;5110273;28;20020;-65
2021/07/18 08:50:20;;;;;;;5.13;1.90;;;23.10;73.00;;;;;;5111891;28;20388;-66
2021/07/18 08:52:54;;;;;;;4.85;1.90;;;23.00;74.20;;;;;;5111638;28;20035;-65
2021/07/18 08:55:22;;;;;;;5.55;2.08;;;22.70;74.00;;;;;;5112096;28;20531;-66
2021/07/18 08:57:48;;;;;;;4.72;2.20;;;22.60;75.20;;;;;;5114529;27;20020;-65
2021/07/18 09:00:14;;;;;;;4.72;1.90;;;22.90;74.20;;;;;;5115739;27;20492;-65
2021/07/18 09:02:41;;;;;;;11.38;2.50;;;23.10;72.90;;;;;;5115685;28;20100;-65
2021/07/18 09:05:07;;;;;;;17.00;2.60;;;22.80;74.50;;;;;;5115335;28;20039;-66
2021/07/18 09:07:53;;;;;;;7.22;2.00;;;23.00;74.50;;;;;;5115189;28;20032;-65
2021/07/18 09:10:30;;;;;;;6.10;2.08;;;22.90;74.40;;;;;;5113857;28;20480;-66
2021/07/18 09:13:12;;;;;;;9.35;2.10;;;23.00;74.60;;;;;;5115738;28;20038;-57
2021/07/18 09:15:52;;;;;;;9.07;2.22;;;23.50;72.10;;;;;;5114024;28;20107;-60
2021/07/18 09:18:22;;;;;;;7.57;2.10;;;23.70;71.00;;;;;;5115437;28;20015;-57
2021/07/18 09:20:50;;;;;;;5.35;1.85;;;23.90;70.00;;;;;;5115743;28;20032;-60
2021/07/18 09:23:17;;;;;;;6.95;2.67;;;24.00;69.20;;;;;;5114435;28;20031;-57
2021/07/18 09:25:43;;;;;;;7.40;1.88;;;24.20;69.00;;;;;;5113814;28;20110;-57
2021/07/18 09:28:17;;;;;;;7.85;2.25;;;24.30;68.70;;;;;;5115814;28;20016;-57
2021/07/18 09:30:45;;;;;;;10.27;2.45;;;24.40;68.40;;;;;;5115519;28;20039;-58
2021/07/18 09:33:21;;;;;;;6.13;2.22;;;24.50;68.60;;;;;;5128668;27;20020;-60
2021/07/18 09:35:47;;;;;;;7.82;2.47;;;24.50;68.40;;;;;;5115710;27;20016;-58
2021/07/18 09:38:21;;;;;;;6.13;2.10;;;24.50;68.30;;;;;;5115301;28;20094;-58
2021/07/18 09:40:59;;;;;;;6.18;2.15;;;24.50;68.30;;;;;;5115603;28;20024;-57
2021/07/18 09:43:28;;;;;;;6.70;2.00;;;24.60;68.20;;;;;;5115229;28;20020;-58
2021/07/18 09:46:00;;;;;;;4.95;2.00;;;24.60;67.90;;;;;;5125770;27;20110;-57
2021/07/18 09:48:40;;;;;;;7.95;2.22;;;24.60;67.80;;;;;;5123060;27;20093;-62
2021/07/18 09:51:14;;;;;;;8.20;2.70;;;24.60;67.90;;;;;;5121902;27;20560;-60
2021/07/18 09:53:41;;;;;;;5.07;2.20;;;24.60;67.40;;;;;;5124128;27;20031;-57
2021/07/18 09:56:16;;;;;;;7.05;2.58;;;24.70;67.30;;;;;;5133957;27;20076;-58
2021/07/18 09:58:55;;;;;;;5.80;2.50;;;24.70;67.10;;;;;;5135834;27;20392;-58
2021/07/18 10:01:21;;;;;;;6.95;2.55;;;24.70;67.00;;;;;;5121868;27;20019;-59
2021/07/18 10:03:52;;;;;;;6.93;3.15;;;24.80;67.00;;;;;;5135291;27;20026;-57
2021/07/18 10:06:19;;;;;;;12.60;3.73;;;24.80;67.10;;;;;;5118961;27;20032;-57
2021/07/18 10:08:50;;;;;;;9.35;3.53;;;24.90;67.10;;;;;;5114860;28;20032;-59
2021/07/18 10:11:25;;;;;;;8.18;2.90;;;24.90;66.40;;;;;;5123185;27;20011;-58
2021/07/18 10:13:52;;;;;;;8.02;3.35;;;24.90;66.50;;;;;;5134054;27;20023;-59
2021/07/18 10:16:19;;;;;;;9.23;3.30;;;24.90;65.80;;;;;;5134894;27;20491;-60
2021/07/18 10:18:48;;;;;;;10.13;3.67;;;24.90;66.30;;;;;;5134671;27;20026;-58
2021/07/18 10:21:25;;;;;;;8.57;3.10;;;24.90;66.30;;;;;;5130260;27;20083;-59
2021/07/18 10:23:52;;;;;;;10.20;3.38;;;24.90;66.50;;;;;;5129571;27;20107;-57
2021/07/18 10:26:26;;;;;;;6.53;3.10;;;24.90;67.00;;;;;;5128650;27;20031;-59
2021/07/18 10:28:53;;;;;;;7.65;3.22;;;24.90;67.50;;;;;;5114113;27;20034;-57
2021/07/18 10:31:33;;;;;;;7.38;3.20;;;25.00;66.20;;;;;;5116567;27;20455;-58
2021/07/18 10:34:01;;;;;;;7.90;3.10;;;25.00;67.20;;;;;;5130563;27;20102;-58
2021/07/18 10:36:28;;;;;;;7.38;3.30;;;25.00;66.20;;;;;;5116102;27;20078;-58
2021/07/18 10:38:53;;;;;;;7.30;3.00;;;25.00;66.20;;;;;;5112930;28;20488;-58
2021/07/18 10:41:43;;;;;;;7.72;2.95;;;25.00;66.50;;;;;;5119161;27;20027;-60
2021/07/18 10:44:17;;;;;;;9.95;3.10;;;25.10;66.20;;;;;;5131321;27;20022;-59
2021/07/18 10:46:42;;;;;;;6.35;3.53;;;25.10;66.30;;;;;;5124407;27;20027;-56
2021/07/18 10:49:12;;;;;;;6.57;3.70;;;25.10;66.30;;;;;;5113777;28;20024;-57
2021/07/18 10:51:40;;;;;;;7.88;3.90;;;25.10;66.80;;;;;;5124161;27;20042;-57
2021/07/18 10:54:09;;;;;;;8.45;3.67;;;25.10;67.70;;;;;;5129277;27;20445;-57
2021/07/18 10:56:44;;;;;;;9.38;4.07;;;25.10;67.80;;;;;;5134109;27;20019;-56
2021/07/18 10:59:29;;;;;;;9.75;4.88;;;25.20;67.50;;;;;;5134548;27;20079;-56
2021/07/18 11:02:06;;;;;;;9.45;4.57;;;25.20;66.90;;;;;;5128787;27;20035;-57
2021/07/18 11:04:39;;;;;;;8.75;4.75;;;25.30;67.80;;;;;;5113358;28;20027;-57
2021/07/18 11:07:20;;;;;;;10.70;4.68;;;25.20;67.40;;;;;;5114108;27;20028;-61
2021/07/18 11:09:46;;;;;;;;;;;25.30;67.30;;;;;;5113459;27;20024;-61
2021/07/18 11:12:26;;;;;;;9.05;3.80;;;25.20;67.50;;;;;;5133609;27;19933;-61
2021/07/18 11:14:52;;;;;;;8.38;3.70;;;25.20;68.00;;;;;;5133114;27;20024;-62
2021/07/18 11:17:29;;;;;;;9.65;4.43;;;25.20;67.80;;;;;;5119498;27;20015;-61
2021/07/18 11:20:00;;;;;;;8.55;3.85;;;25.20;67.70;;;;;;5114429;27;20035;-61
2021/07/18 11:23:04;;;;;;;8.65;3.50;;;25.30;67.50;;;;;;5119880;27;20023;-63
2021/07/18 11:25:49;;;;;;;7.28;3.22;;;25.30;68.10;;;;;;5110012;28;20120;-63
2021/07/18 11:28:36;;;;;;;8.25;3.33;;;25.40;67.90;;;;;;5128246;27;20052;-61
2021/07/18 11:31:13;;;;;;;8.45;3.10;;;25.30;68.40;;;;;;5125461;27;20052;-62
2021/07/18 11:33:44;;;;;;;6.72;3.28;;;25.30;68.00;;;;;;5120708;27;20026;-61
2021/07/18 11:36:31;;;;;;;6.57;3.22;;;25.30;67.80;;;;;;5125001;27;20031;-61
2021/07/18 11:38:58;;;;;;;12.00;3.40;;;25.40;67.60;;;;;;5121829;27;20036;-63
2021/07/18 11:41:27;;;;;;;13.00;3.33;;;25.40;68.20;;;;;;5121315;27;20016;-62
2021/07/18 11:44:00;;;;;;;9.40;3.00;;;25.40;67.90;;;;;;5111180;27;20034;-61
2021/07/18 11:46:29;;;;;;;6.22;2.65;;;25.30;68.00;;;;;;5128985;27;20026;-61
2021/07/18 11:48:55;;;;;;;8.75;2.97;;;25.20;67.80;;;;;;5124328;27;20032;-61
2021/07/18 11:51:23;;;;;;;5.18;2.60;;;25.30;68.00;;;;;;5111392;28;20471;-61
2021/07/18 11:53:53;;;;;;;5.57;2.97;;;25.20;67.50;;;;;;5113580;27;20047;-61
2021/07/18 11:56:19;;;;;;;8.30;3.35;;;25.20;67.90;;;;;;5121040;27;20023;-61
2021/07/18 11:58:44;;;;;;;7.40;2.83;;;25.20;68.40;;;;;;5123118;27;20069;-61
2021/07/18 12:01:10;;;;;;;6.70;2.50;;;25.30;68.20;;;;;;5126102;27;20023;-61
2021/07/18 12:03:35;;;;;;;6.75;2.60;;;25.20;68.10;;;;;;5112507;27;20041;-62
2021/07/18 12:06:01;;;;;;;7.07;2.85;;;25.20;67.90;;;;;;5114017;27;20015;-61
2021/07/18 12:08:27;;;;;;;6.82;2.55;;;25.10;67.50;;;;;;5112141;28;20418;-62
2021/07/18 12:11:03;;;;;;;5.32;2.55;;;25.00;66.90;;;;;;5112062;28;20024;-63
2021/07/18 12:13:37;;;;;;;6.35;2.53;;;24.90;66.60;;;;;;5127650;28;20071;-61
2021/07/18 12:16:04;;;;;;;5.60;2.92;;;25.00;66.80;;;;;;5114698;28;20012;-62
2021/07/18 12:18:30;;;;;;;6.80;2.55;;;24.90;66.50;;;;;;5112248;28;20019;-62
2021/07/18 12:21:14;;;;;;;5.13;2.58;;;24.90;66.50;;;;;;5110885;28;20049;-62
2021/07/18 12:23:40;;;;;;;5.13;2.38;;;24.90;67.10;;;;;;5110845;28;20466;-62
2021/07/18 12:26:05;;;;;;;5.70;2.50;;;25.00;67.30;;;;;;5111625;28;20153;-62
2021/07/18 12:28:31;;;;;;;4.03;2.20;;;25.00;67.20;;;;;;5131850;27;20024;-62
2021/07/18 12:31:04;;;;;;;4.60;2.47;;;25.00;67.00;;;;;;5125235;27;20031;-62
2021/07/18 12:33:29;;;;;;;4.75;2.47;;;24.90;67.10;;;;;;5136932;27;20027;-62
2021/07/18 12:36:03;;;;;;;4.95;2.47;;;25.00;67.90;;;;;;5129393;27;20096;-61
2021/07/18 12:38:29;;;;;;;6.35;2.92;;;24.90;67.60;;;;;;5116067;28;20510;-63
2021/07/18 12:41:02;;;;;;;4.90;2.70;;;25.00;67.40;;;;;;5115961;28;20031;-63
2021/07/18 12:43:29;;;;;;;6.18;2.95;;;24.80;67.20;;;;;;5117437;27;20019;-63
2021/07/18 12:45:55;;;;;;;6.43;3.35;;;24.80;66.90;;;;;;5124452;27;20465;-64
2021/07/18 12:48:24;;;;;;;4.57;2.63;;;24.80;66.80;;;;;;5129617;27;20030;-63
2021/07/18 12:50:51;;;;;;;5.43;2.63;;;24.90;66.90;;;;;;5136053;27;20030;-64
2021/07/18 12:53:18;;;;;;;4.63;2.58;;;24.90;67.70;;;;;;5114752;27;20020;-64
2021/07/18 12:55:49;;;;;;;4.93;2.50;;;25.00;68.40;;;;;;5115173;28;20080;-63
2021/07/18 12:58:21;;;;;;;5.50;2.90;;;25.00;67.70;;;;;;5129268;27;20023;-63
2021/07/18 13:00:57;;;;;;;3.90;2.40;;;25.00;67.50;;;;;;5136126;27;20030;-64
2021/07/18 13:03:23;;;;;;;5.97;2.45;;;25.00;67.60;;;;;;5138530;27;20519;-63
2021/07/18 13:05:48;;;;;;;6.30;2.13;;;25.00;67.70;;;;;;5120072;27;20026;-63
2021/07/18 13:08:41;;;;;;;6.78;2.53;;;24.90;67.50;;;;;;5115499;27;20027;-63
2021/07/18 13:11:29;;;;;;;5.57;2.50;;;24.80;67.60;;;;;;5133923;27;20023;-64
2021/07/18 13:13:55;;;;;;;4.22;2.47;;;24.80;68.20;;;;;;5135563;27;20537;-64
2021/07/18 13:16:36;;;;;;;6.07;2.28;;;24.80;67.80;;;;;;5135472;27;20031;-63
2021/07/18 13:19:10;;;;;;;5.93;2.50;;;24.80;67.80;;;;;;5135900;27;20103;-66
2021/07/18 13:21:36;;;;;;;5.35;2.40;;;24.70;67.60;;;;;;5136887;27;20049;-67
2021/07/18 13:24:02;;;;;;;5.72;2.67;;;24.70;67.80;;;;;;5141646;27;20499;-65
2021/07/18 13:26:34;;;;;;;5.38;2.40;;;24.80;67.90;;;;;;5144532;27;20300;-66
2021/07/18 13:29:19;;;;;;;5.18;2.10;;;24.80;67.80;;;;;;5150395;27;20031;-66
2021/07/18 13:31:47;;;;;;;4.60;2.45;;;24.80;67.60;;;;;;5156295;27;20018;-66
2021/07/18 13:34:13;;;;;;;6.45;2.55;;;24.80;67.60;;;;;;5156325;27;20072;-67
2021/07/18 13:36:39;;;;;;;4.32;2.30;;;24.70;67.00;;;;;;5154630;27;20023;-66
2021/07/18 13:39:14;;;;;;;5.60;2.45;;;24.70;67.10;;;;;;5135617;27;20027;-65
2021/07/18 13:41:41;;;;;;;5.18;2.40;;;24.70;67.00;;;;;;5134754;27;20030;-67
2021/07/18 13:44:08;;;;;;;3.72;2.05;;;24.70;67.30;;;;;;5117636;27;20027;-67
2021/07/18 13:46:34;;;;;;;6.72;2.58;;;24.70;67.00;;;;;;5140099;27;20022;-64
2021/07/18 13:49:00;;;;;;;8.70;2.72;;;24.70;67.00;;;;;;5134937;27;20026;-68
2021/07/18 13:51:30;;;;;;;5.78;2.38;;;24.70;67.40;;;;;;5128111;27;20015;-67
2021/07/18 13:53:57;;;;;;;4.88;2.00;;;24.70;67.20;;;;;;5129615;27;20023;-70
2021/07/18 13:56:23;;;;;;;4.90;2.20;;;24.80;67.60;;;;;;5118843;27;20066;-69
2021/07/18 13:58:49;;;;;;;6.32;2.05;;;24.80;67.50;;;;;;5121651;27;20058;-68
2021/07/18 14:01:14;;;;;;;4.00;2.03;;;24.60;67.50;;;;;;5134736;27;20015;-68
2021/07/18 14:03:40;;;;;;;6.35;2.35;;;24.70;68.10;;;;;;5137464;27;20160;-68
2021/07/18 14:06:07;;;;;;;6.68;2.35;;;24.70;67.90;;;;;;5117337;27;20117;-68
2021/07/18 14:08:32;;;;;;;6.07;2.28;;;24.60;68.00;;;;;;5121865;27;20492;-68
2021/07/18 14:10:58;;;;;;;9.40;2.28;;;24.70;68.20;;;;;;5118099;27;20032;-67
2021/07/18 14:13:24;;;;;;;3.67;1.90;;;24.60;68.10;;;;;;5113992;27;20022;-67
2021/07/18 14:15:50;;;;;;;4.63;2.30;;;24.60;67.90;;;;;;5113594;27;20026;-69
2021/07/18 14:18:15;;;;;;;6.93;2.25;;;24.70;68.50;;;;;;5113079;27;20020;-66
2021/07/18 14:20:41;;;;;;;6.50;2.22;;;24.70;68.20;;;;;;5112427;27;20024;-66
2021/07/18 14:23:12;;;;;;;4.63;1.92;;;24.70;68.70;;;;;;5123156;27;20027;-66
2021/07/18 14:25:38;;;;;;;5.22;2.25;;;24.70;68.70;;;;;;5112001;28;20096;-68
2021/07/18 14:28:05;;;;;;;5.45;2.00;;;24.80;69.20;;;;;;5113576;28;20030;-66
2021/07/18 14:30:32;;;;;;;4.47;2.00;;;24.80;68.20;;;;;;5113798;28;20076;-67
2021/07/18 14:32:58;;;;;;;5.22;2.17;;;24.70;68.40;;;;;;5113844;28;20023;-66
2021/07/18 14:35:25;;;;;;;4.03;2.00;;;24.70;68.20;;;;;;5113475;28;20091;-66
2021/07/18 14:37:51;;;;;;;5.97;2.38;;;24.70;68.50;;;;;;5111979;28;20030;-66
2021/07/18 14:40:18;;;;;;;8.10;2.13;;;24.60;68.20;;;;;;5114530;27;20364;-66
2021/07/18 14:42:46;;;;;;;5.82;2.10;;;24.60;68.90;;;;;;5117501;27;20027;-66
2021/07/18 14:45:12;;;;;;;5.47;2.30;;;24.60;68.80;;;;;;5133236;27;20026;-68
2021/07/18 14:47:39;;;;;;;8.48;2.72;;;24.60;69.00;;;;;;5122814;27;20510;-63
2021/07/18 14:50:05;;;;;;;6.25;2.17;;;24.60;69.10;;;;;;5114717;27;20111;-66
2021/07/18 14:52:31;;;;;;;4.95;1.98;;;24.60;69.10;;;;;;5117193;27;20028;-64
2021/07/18 14:54:57;;;;;;;6.97;2.58;;;24.60;69.00;;;;;;5133106;27;20076;-66
2021/07/18 14:57:22;;;;;;;3.72;1.70;;;24.60;69.00;;;;;;5126419;27;20031;-66
2021/07/18 14:59:48;;;;;;;5.95;2.10;;;24.60;68.70;;;;;;5113237;28;20098;-66
2021/07/18 15:02:13;;;;;;;5.50;1.95;;;24.60;68.70;;;;;;5111682;28;20476;-66
2021/07/18 15:04:40;;;;;;;5.65;1.98;;;24.60;68.20;;;;;;5112787;28;20067;-66
2021/07/18 15:07:06;;;;;;;6.72;2.47;;;24.60;68.60;;;;;;5111788;28;20019;-65
2021/07/18 15:09:33;;;;;;;5.15;2.20;;;24.60;68.30;;;;;;5120534;27;20027;-67
2021/07/18 15:11:59;;;;;;;5.10;2.10;;;24.60;68.00;;;;;;5133119;27;20377;-67
2021/07/18 15:14:25;;;;;;;5.65;1.75;;;24.60;68.30;;;;;;5132311;27;20016;-66
2021/07/18 15:16:52;;;;;;;4.43;1.92;;;24.60;68.20;;;;;;5132737;27;20159;-67
2021/07/18 15:19:18;;;;;;;4.95;1.92;;;24.60;68.20;;;;;;5126112;27;20062;-67
2021/07/18 15:21:43;;;;;;;5.78;1.92;;;24.60;68.50;;;;;;5112857;27;20548;-67
2021/07/18 15:24:09;;;;;;;4.68;1.77;;;24.60;68.20;;;;;;5115801;27;20049;-67
2021/07/18 15:26:35;;;;;;;3.20;1.50;;;24.60;68.30;;;;;;5116996;27;20072;-67
2021/07/18 15:29:00;;;;;;;4.20;1.95;;;24.60;68.50;;;;;;5113055;27;20031;-67
2021/07/18 15:31:26;;;;;;;2.88;1.67;;;24.60;68.50;;;;;;5113690;27;20031;-62
2021/07/18 15:33:51;;;;;;;5.18;1.73;;;24.60;68.70;;;;;;5110125;28;20476;-66
2021/07/18 15:36:17;;;;;;;4.10;1.67;;;24.60;68.90;;;;;;5110596;27;20047;-65
2021/07/18 15:38:43;;;;;;;4.93;2.05;;;24.60;68.20;;;;;;5111257;28;20063;-65
2021/07/18 15:41:08;;;;;;;4.32;1.50;;;24.60;68.20;;;;;;5127180;27;20076;-67
2021/07/18 15:43:34;;;;;;;5.57;1.60;;;24.60;68.40;;;;;;5131342;27;20090;-67
2021/07/18 15:45:59;;;;;;;7.45;1.73;;;24.60;68.10;;;;;;5111165;27;20036;-68
2021/07/18 15:48:25;;;;;;;6.32;1.90;;;24.60;68.70;;;;;;5119099;27;20015;-65
2021/07/18 15:50:51;;;;;;;4.03;1.73;;;24.60;68.30;;;;;;5117087;27;20393;-66
2021/07/18 15:53:17;;;;;;;4.90;1.90;;;24.60;68.20;;;;;;5112956;27;20027;-67
2021/07/18 15:55:44;;;;;;;3.97;1.55;;;24.60;68.40;;;;;;5121414;27;20423;-70
2021/07/18 15:58:10;;;;;;;6.53;1.67;;;24.50;68.90;;;;;;5127306;27;20019;-68
2021/07/18 16:00:36;;;;;;;4.22;1.80;;;24.60;68.70;;;;;;5116097;27;20034;-69
2021/07/18 16:03:03;;;;;;;7.10;1.63;;;24.60;68.90;;;;;;5110205;28;20069;-67
2021/07/18 16:05:28;;;;;;;4.53;1.67;;;24.60;69.20;;;;;;5109758;28;20020;-69
2021/07/18 16:07:54;;;;;;;5.32;2.40;;;24.60;69.30;;;;;;5111707;28;20389;-71
2021/07/18 16:10:19;;;;;;;4.20;1.70;;;24.60;69.00;;;;;;5111554;28;20020;-73
2021/07/18 16:12:45;;;;;;;3.75;1.75;;;24.60;69.40;;;;;;5111503;28;20028;-70
2021/07/18 16:15:13;;;;;;;4.63;1.65;;;24.60;69.30;;;;;;5111479;28;20102;-69
2021/07/18 16:17:41;;;;;;;4.63;1.75;;;24.60;69.50;;;;;;5115160;28;20498;-66
2021/07/18 16:20:07;;;;;;;14.40;2.60;;;24.60;69.10;;;;;;5126552;27;20032;-64
2021/07/18 16:22:33;;;;;;;7.13;1.70;;;24.60;69.70;;;;;;5132154;28;20031;-66
2021/07/18 16:24:59;;;;;;;7.38;1.95;;;24.50;69.60;;;;;;5132289;28;20030;-65
2021/07/18 16:27:24;;;;;;;3.97;1.63;;;24.50;69.20;;;;;;5132483;28;20026;-66
2021/07/18 16:29:50;;;;;;;5.85;1.90;;;24.50;70.00;;;;;;5132383;28;20484;-66
2021/07/18 16:32:16;;;;;;;4.22;1.55;;;24.50;70.00;;;;;;5132201;28;20024;-66
2021/07/18 16:34:41;;;;;;;4.90;1.80;;;24.50;69.50;;;;;;5130775;28;20503;-68
2021/07/18 16:37:08;;;;;;;4.75;1.60;;;24.50;70.00;;;;;;5132373;27;20027;-65
2021/07/18 16:39:33;;;;;;;3.85;1.80;;;24.50;69.30;;;;;;5132433;27;20024;-66
2021/07/18 16:41:59;;;;;;;5.35;1.60;;;24.40;69.10;;;;;;5132462;28;20024;-65
2021/07/18 16:44:25;;;;;;;3.67;1.40;;;24.50;69.40;;;;;;5132061;27;20101;-66
2021/07/18 16:46:51;;;;;;;4.63;1.58;;;24.50;69.90;;;;;;5132351;28;20119;-66
2021/07/18 16:49:17;;;;;;;4.05;1.70;;;24.50;69.40;;;;;;5132151;28;20085;-66
2021/07/18 16:51:42;;;;;;;2.55;1.60;;;24.50;70.20;;;;;;5132308;28;20412;-66
2021/07/18 16:54:08;;;;;;;6.50;1.80;;;24.40;69.30;;;;;;5132299;28;20020;-66
2021/07/18 16:56:34;;;;;;;2.67;1.50;;;24.40;69.10;;;;;;5131935;28;20030;-66
2021/07/18 16:59:00;;;;;;;3.65;1.70;;;24.40;69.20;;;;;;5132256;28;20365;-66